SBCP/CAW METAR and TAF weather

Enter ICAO airport designator
Station Type Date Time Source
SBCP METAR 2022/06/25 21:00 UTC NOAA

SBCP 252100Z 16018KT 9999 BKN020 OVC080 23/19 Q1018


Station Type Date Time Source
SBCP Decoded METAR 2022/06/25 21:00 UTC NOAA

Campos, Brazil (SBCP) 21-45S 041-20W 11M
Jun 25, 2022 - 05:00 PM EDT / 2022.06.25 2100 UTC
Wind: from the SSE (160 degrees) at 21 MPH (18 KT):0
Visibility: greater than 7 mile(s):0
Sky conditions: overcast
Temperature: 73 F (23 C)
Dew Point: 66 F (19 C)
Relative Humidity: 78%
Pressure (altimeter): 30.06 in. Hg (1018 hPa)
ob: SBCP 252100Z 16018KT 9999 BKN020 OVC080 23/19 Q1018
cycle: 21

Station Type Date Time Source
SBCP TAF 2022/06/25 18:10 UTC NOAA

TAF SBCP 251610Z 2518/2606 22012KT 9999 SCT020 TX27/2518Z TN23/2521Z
TEMPO 2602/2606 17010KT 3000 RA BR BKN013
RMK PGX

Example: see airport list